createdAt,value
2018-05-07T00:01:33.227Z,8.30
2018-05-07T00:04:07.837Z,8.20
2018-05-07T00:06:42.240Z,8.10
2018-05-07T00:09:15.916Z,8.10
2018-05-07T00:11:49.550Z,8.10
2018-05-07T00:14:24.952Z,8.10
2018-05-07T00:16:58.810Z,8.10
2018-05-07T00:19:32.471Z,8.10
2018-05-07T00:22:07.143Z,8.00
2018-05-07T00:24:41.751Z,7.90
2018-05-07T00:27:15.643Z,7.90
2018-05-07T00:29:49.269Z,7.80
2018-05-07T00:32:23.903Z,7.80
2018-05-07T00:34:57.550Z,7.80
2018-05-07T00:37:31.424Z,7.70
2018-05-07T00:40:05.090Z,7.70
2018-05-07T00:42:38.779Z,7.70
2018-05-07T00:45:12.399Z,7.60
2018-05-07T00:47:46.837Z,7.60
2018-05-07T00:50:20.461Z,7.60
2018-05-07T00:52:55.158Z,7.60
2018-05-07T00:55:29.756Z,7.60
2018-05-07T00:58:05.166Z,7.50
2018-05-07T01:00:38.127Z,7.50
2018-05-07T01:03:11.808Z,7.50
2018-05-07T01:05:46.208Z,7.40
2018-05-07T01:08:27.062Z,7.40
2018-05-07T01:11:07.804Z,7.30
2018-05-07T01:13:41.556Z,7.30
2018-05-07T01:16:15.256Z,7.30
2018-05-07T01:18:49.001Z,7.30
2018-05-07T01:21:22.944Z,7.20
2018-05-07T01:23:57.457Z,7.20
2018-05-07T01:26:31.932Z,7.20
2018-05-07T01:29:06.691Z,7.10
2018-05-07T01:31:40.412Z,7.20
2018-05-07T01:34:15.957Z,7.10
2018-05-07T01:36:50.434Z,7.10
2018-05-07T01:39:25.167Z,7.10
2018-05-07T01:41:58.880Z,7.00
2018-05-07T01:44:32.849Z,7.00
2018-05-07T01:47:06.339Z,7.00
2018-05-07T01:49:41.077Z,6.90
2018-05-07T01:52:14.821Z,6.90
2018-05-07T01:54:48.576Z,7.00
2018-05-07T01:57:21.945Z,6.90
2018-05-07T01:59:57.436Z,6.90
2018-05-07T02:02:31.142Z,6.90
2018-05-07T02:05:04.239Z,6.90
2018-05-07T02:07:38.912Z,6.90
2018-05-07T02:10:12.680Z,6.90
2018-05-07T02:12:46.388Z,6.90
2018-05-07T02:15:21.101Z,6.90
2018-05-07T02:17:54.804Z,7.00
2018-05-07T02:20:28.591Z,7.00
2018-05-07T02:23:02.299Z,7.10
2018-05-07T02:25:36.056Z,7.10
2018-05-07T02:28:09.765Z,7.10
2018-05-07T02:30:43.193Z,7.10
2018-05-07T02:33:16.911Z,7.10
2018-05-07T02:35:51.636Z,7.10
2018-05-07T02:38:26.308Z,7.10
2018-05-07T02:41:01.035Z,7.00
2018-05-07T02:43:34.751Z,7.10
2018-05-07T02:46:08.508Z,7.40
2018-05-07T02:48:42.989Z,7.70
2018-05-07T02:51:17.703Z,7.60
2018-05-07T02:53:51.409Z,7.70
2018-05-07T02:56:25.154Z,7.80
2018-05-07T02:59:00.404Z,7.70
2018-05-07T03:01:34.913Z,7.50
2018-05-07T03:04:09.389Z,7.40
2018-05-07T03:06:43.144Z,7.30
2018-05-07T03:09:17.714Z,7.10
2018-05-07T03:11:52.566Z,7.10
2018-05-07T03:14:27.241Z,7.10
2018-05-07T03:17:01.995Z,7.10
2018-05-07T03:19:36.675Z,7.10
2018-05-07T03:22:11.246Z,7.10
2018-05-07T03:24:46.833Z,7.20
2018-05-07T03:27:21.361Z,7.20
2018-05-07T03:29:55.077Z,7.20
2018-05-07T03:32:28.834Z,7.20
2018-05-07T03:35:03.499Z,7.20
2018-05-07T03:37:38.020Z,7.20
2018-05-07T03:40:13.461Z,7.20
2018-05-07T03:42:47.982Z,7.20
2018-05-07T03:45:22.467Z,7.20
2018-05-07T03:47:56.215Z,7.20
2018-05-07T03:50:29.947Z,7.30
2018-05-07T03:53:04.664Z,7.40
2018-05-07T03:55:39.024Z,7.50
2018-05-07T03:58:13.735Z,7.60
2018-05-07T04:00:47.467Z,7.60
2018-05-07T04:03:22.972Z,7.70
2018-05-07T04:05:57.732Z,7.70
2018-05-07T04:08:33.223Z,7.80
2018-05-07T04:11:06.945Z,7.80
2018-05-07T04:13:41.651Z,8.00
2018-05-07T04:19:35.186Z,8.10
2018-05-07T04:22:20.038Z,8.20
2018-05-07T04:24:53.794Z,8.30
2018-05-07T04:27:28.469Z,8.40
2018-05-07T04:30:02.240Z,8.50
2018-05-07T04:32:35.954Z,8.60
2018-05-07T04:35:12.990Z,8.60
2018-05-07T04:37:47.703Z,8.80
2018-05-07T04:40:22.409Z,8.90
2018-05-07T04:42:57.092Z,9.00
2018-05-07T04:45:30.841Z,9.20
2018-05-07T04:48:04.556Z,11.80
2018-05-07T04:50:40.025Z,14.30
2018-05-07T04:53:13.737Z,16.00
2018-05-07T04:55:47.489Z,16.00
2018-05-07T04:58:20.884Z,17.70
2018-05-07T05:00:55.185Z,18.80
2018-05-07T05:03:29.477Z,19.60
2018-05-07T05:06:04.573Z,19.30
2018-05-07T05:08:39.805Z,19.20
2018-05-07T05:11:14.125Z,18.30
2018-05-07T05:13:48.403Z,17.50
2018-05-07T05:16:22.726Z,16.80
2018-05-07T05:18:57.030Z,16.40
2018-05-07T05:21:31.413Z,16.10
2018-05-07T05:24:06.613Z,15.50
2018-05-07T05:26:40.918Z,15.50
2018-05-07T05:29:18.558Z,16.20
2018-05-07T05:31:56.011Z,17.80
2018-05-07T05:34:30.001Z,19.10
2018-05-07T05:37:04.352Z,19.90
2018-05-07T05:39:38.662Z,20.20
2018-05-07T05:42:12.934Z,20.80
2018-05-07T05:44:48.220Z,21.30
2018-05-07T05:47:22.511Z,21.40
2018-05-07T05:49:56.687Z,21.50
2018-05-07T05:52:32.024Z,21.50
2018-05-07T05:55:08.907Z,20.80
2018-05-07T05:57:43.232Z,19.90
2018-05-07T06:00:18.491Z,18.60
2018-05-07T06:02:52.769Z,18.60
2018-05-07T06:05:27.085Z,18.90
2018-05-07T06:08:03.736Z,19.00
2018-05-07T06:10:38.048Z,18.80
2018-05-07T06:13:12.326Z,19.10
2018-05-07T06:15:46.637Z,19.80
2018-05-07T06:18:20.925Z,20.30
2018-05-07T06:20:55.997Z,22.70
2018-05-07T06:23:30.277Z,22.60
2018-05-07T06:26:05.354Z,25.10
2018-05-07T06:28:39.635Z,25.10
2018-05-07T06:31:14.724Z,25.20
2018-05-07T06:33:49.007Z,25.10
2018-05-07T06:36:23.336Z,25.40
2018-05-07T06:38:57.641Z,25.80
2018-05-07T06:41:31.973Z,25.70
2018-05-07T06:44:06.246Z,25.30
2018-05-07T06:46:41.337Z,25.50
2018-05-07T06:49:16.417Z,25.50
2018-05-07T06:51:52.475Z,24.90
2018-05-07T06:54:27.525Z,24.80
2018-05-07T06:57:01.843Z,24.80
2018-05-07T06:59:36.131Z,25.20
2018-05-07T07:02:11.233Z,25.30
2018-05-07T07:04:45.511Z,25.30
2018-05-07T07:07:20.812Z,25.20
2018-05-07T07:09:56.065Z,25.60
2018-05-07T07:12:31.153Z,25.20
2018-05-07T07:15:05.106Z,25.20
2018-05-07T07:17:41.180Z,26.00
2018-05-07T07:20:15.462Z,26.00
2018-05-07T07:22:49.780Z,25.80
2018-05-07T07:25:24.056Z,25.70
2018-05-07T07:27:59.711Z,25.80
2018-05-07T07:30:35.048Z,26.00
2018-05-07T07:33:09.370Z,25.50
2018-05-07T07:35:43.653Z,25.40
2018-05-07T07:38:17.976Z,25.10
2018-05-07T07:40:52.251Z,24.80
2018-05-07T07:43:28.301Z,25.80
2018-05-07T07:46:02.575Z,25.70
2018-05-07T07:48:37.868Z,26.00
2018-05-07T07:51:12.913Z,27.00
2018-05-07T07:53:47.301Z,26.90
2018-05-07T07:56:22.496Z,27.20
2018-05-07T07:58:58.546Z,27.50
2018-05-07T08:01:33.666Z,27.60
2018-05-07T08:04:08.046Z,27.60
2018-05-07T08:06:42.494Z,27.10
2018-05-07T08:09:16.821Z,26.70
2018-05-07T08:11:51.112Z,26.70
2018-05-07T08:14:27.216Z,26.90
2018-05-07T08:17:01.494Z,26.80
2018-05-07T08:19:37.540Z,26.90
2018-05-07T08:22:13.557Z,26.90
2018-05-07T08:24:47.892Z,26.90
2018-05-07T08:27:22.172Z,27.00
2018-05-07T08:29:56.502Z,27.00
2018-05-07T08:32:31.737Z,26.80
2018-05-07T08:35:05.840Z,26.60
2018-05-07T08:37:40.115Z,26.30
2018-05-07T08:40:15.193Z,26.10
2018-05-07T08:42:50.426Z,26.10
2018-05-07T08:45:24.740Z,26.70
2018-05-07T08:48:00.028Z,26.80
2018-05-07T08:50:34.354Z,27.40
2018-05-07T08:53:10.458Z,27.30
2018-05-07T08:55:44.897Z,27.20
2018-05-07T08:58:19.185Z,27.40
2018-05-07T09:00:55.245Z,27.00
2018-05-07T09:03:30.533Z,26.90
2018-05-07T09:06:04.848Z,27.60
2018-05-07T09:08:39.132Z,27.90
2018-05-07T09:11:13.446Z,28.50
2018-05-07T09:13:47.427Z,29.30
2018-05-07T09:16:22.430Z,30.00
2018-05-07T09:18:57.200Z,29.70
2018-05-07T09:21:31.292Z,29.70
2018-05-07T09:24:05.272Z,30.20
2018-05-07T09:26:40.073Z,29.80
2018-05-07T09:29:14.080Z,29.80
2018-05-07T09:31:49.115Z,30.40
2018-05-07T09:34:23.099Z,30.10
2018-05-07T09:36:57.192Z,29.10
2018-05-07T09:39:31.162Z,29.00
2018-05-07T09:42:05.753Z,29.00
2018-05-07T09:44:39.732Z,29.00
2018-05-07T09:47:13.763Z,29.00
2018-05-07T09:49:47.754Z,29.70
2018-05-07T09:52:22.733Z,29.80
2018-05-07T09:54:57.013Z,29.50
2018-05-07T09:57:31.061Z,30.10
2018-05-07T10:00:04.425Z,30.30
2018-05-07T10:02:38.768Z,29.30
2018-05-07T10:05:13.593Z,29.00
2018-05-07T10:07:47.770Z,29.30
2018-05-07T10:10:22.057Z,28.90
2018-05-07T10:12:57.148Z,29.10
2018-05-07T10:15:31.426Z,29.10
2018-05-07T10:18:05.736Z,29.30
2018-05-07T10:20:40.009Z,28.90
2018-05-07T10:23:14.322Z,28.70
2018-05-07T10:25:49.589Z,28.80
2018-05-07T10:28:24.682Z,27.90
2018-05-07T10:30:58.754Z,27.80
2018-05-07T10:33:33.092Z,28.00
2018-05-07T10:36:07.370Z,28.00
2018-05-07T10:38:42.444Z,28.10
2018-05-07T10:41:16.720Z,28.10
2018-05-07T10:43:51.039Z,28.30
2018-05-07T10:46:26.085Z,28.20
2018-05-07T10:49:00.413Z,28.10
2018-05-07T10:51:34.693Z,28.20
2018-05-07T10:54:09.960Z,28.50
2018-05-07T10:56:45.188Z,28.60
2018-05-07T10:59:19.504Z,27.90
2018-05-07T11:01:53.798Z,28.00
2018-05-07T11:04:28.121Z,28.00
2018-05-07T11:07:04.133Z,27.70
2018-05-07T11:09:39.416Z,27.70
2018-05-07T11:12:14.469Z,27.50
2018-05-07T11:14:48.793Z,27.30
2018-05-07T11:17:24.031Z,27.30
2018-05-07T11:19:58.351Z,27.00
2018-05-07T11:22:32.669Z,27.00
2018-05-07T11:25:06.989Z,27.10
2018-05-07T11:27:41.287Z,27.30
2018-05-07T11:30:15.605Z,27.50
2018-05-07T11:32:49.883Z,27.50
2018-05-07T11:35:24.210Z,27.40
2018-05-07T11:38:00.237Z,27.10
2018-05-07T11:40:34.548Z,27.00
2018-05-07T11:43:08.838Z,27.00
2018-05-07T11:45:43.158Z,26.90
2018-05-07T11:48:17.434Z,27.00
2018-05-07T11:50:52.516Z,27.00
2018-05-07T11:53:26.801Z,26.90
2018-05-07T11:56:01.122Z,27.00
2018-05-07T11:58:36.370Z,27.00
2018-05-07T12:01:10.703Z,27.00
2018-05-07T12:03:44.983Z,26.70
2018-05-07T12:06:20.064Z,26.10
2018-05-07T12:08:54.353Z,26.10
2018-05-07T12:11:28.676Z,26.00
2018-05-07T12:14:02.957Z,25.80
2018-05-07T12:16:38.044Z,25.70
2018-05-07T12:19:12.310Z,25.60
2018-05-07T12:21:47.180Z,25.50
2018-05-07T12:24:21.239Z,25.50
2018-05-07T12:26:56.324Z,25.30
2018-05-07T12:29:30.608Z,25.30
2018-05-07T12:32:04.926Z,25.10
2018-05-07T12:34:38.889Z,25.00
2018-05-07T12:37:13.223Z,24.90
2018-05-07T12:39:47.497Z,24.80
2018-05-07T12:42:22.113Z,24.80
2018-05-07T12:44:56.385Z,24.60
2018-05-07T12:47:31.483Z,24.60
2018-05-07T12:50:06.745Z,24.60
2018-05-07T12:52:41.066Z,24.60
2018-05-07T12:55:17.289Z,24.30
2018-05-07T12:57:51.608Z,24.30
2018-05-07T13:00:25.896Z,24.30
2018-05-07T13:03:00.217Z,24.10
2018-05-07T13:05:34.504Z,24.10
2018-05-07T13:08:09.600Z,23.90
2018-05-07T13:10:43.660Z,23.80
2018-05-07T13:13:17.997Z,23.80
2018-05-07T13:15:52.276Z,23.80
2018-05-07T13:18:27.397Z,23.70
2018-05-07T13:21:02.444Z,23.70
2018-05-07T13:23:37.517Z,22.50
2018-05-07T13:26:11.797Z,23.60
2018-05-07T13:28:46.876Z,23.50
2018-05-07T13:31:22.173Z,23.50
2018-05-07T13:33:58.237Z,23.40
2018-05-07T13:36:33.277Z,23.40
2018-05-07T13:39:08.581Z,23.40
2018-05-07T13:41:42.865Z,23.40
2018-05-07T13:44:17.192Z,23.30
2018-05-07T13:46:51.501Z,23.30
2018-05-07T13:49:25.822Z,23.20
2018-05-07T13:52:00.101Z,23.10
2018-05-07T13:54:34.476Z,23.00
2018-05-07T13:57:08.904Z,22.90
2018-05-07T13:59:43.217Z,22.90
2018-05-07T14:02:17.506Z,22.90
2018-05-07T14:04:51.833Z,22.90
2018-05-07T14:07:26.112Z,23.00
2018-05-07T14:10:00.429Z,23.00
2018-05-07T14:12:35.696Z,23.00
2018-05-07T14:15:10.063Z,23.00
2018-05-07T14:17:45.325Z,22.90
2018-05-07T14:20:19.421Z,22.90
2018-05-07T14:22:54.666Z,22.80
2018-05-07T14:25:28.994Z,22.80
2018-05-07T14:28:03.320Z,22.80
2018-05-07T14:30:38.603Z,22.80
2018-05-07T14:33:13.660Z,22.90
2018-05-07T14:35:47.976Z,22.90
2018-05-07T14:38:22.245Z,22.90
2018-05-07T14:40:56.562Z,23.00
2018-05-07T14:43:30.833Z,23.00
2018-05-07T14:46:06.136Z,23.00
2018-05-07T14:48:40.407Z,23.10
2018-05-07T14:51:15.693Z,23.10
2018-05-07T14:53:50.731Z,23.10
2018-05-07T14:56:26.777Z,23.10
2018-05-07T14:59:01.060Z,23.10
2018-05-07T15:01:35.370Z,23.10
2018-05-07T15:04:10.416Z,23.00
2018-05-07T15:06:45.714Z,23.00
2018-05-07T15:09:20.017Z,22.90
2018-05-07T15:11:55.323Z,22.70
2018-05-07T15:14:29.613Z,22.70
2018-05-07T15:17:03.928Z,22.60
2018-05-07T15:19:38.207Z,22.50
2018-05-07T15:22:13.297Z,22.30
2018-05-07T15:24:46.933Z,22.30
2018-05-07T15:27:22.978Z,22.30
2018-05-07T15:29:57.257Z,22.20
2018-05-07T15:32:31.582Z,22.30
2018-05-07T15:35:05.550Z,22.30
2018-05-07T15:37:40.129Z,22.50
2018-05-07T15:40:14.399Z,22.70
2018-05-07T15:42:49.704Z,22.80
2018-05-07T15:45:24.749Z,22.90
2018-05-07T15:48:00.776Z,22.90
2018-05-07T15:50:35.053Z,22.90
2018-05-07T15:53:09.377Z,23.00
2018-05-07T15:55:43.660Z,22.90
2018-05-07T15:58:20.185Z,23.00
2018-05-07T16:00:54.881Z,22.90
2018-05-07T16:03:29.282Z,22.90
2018-05-07T16:06:03.579Z,22.90
2018-05-07T16:08:41.961Z,22.90
2018-05-07T16:11:15.590Z,22.90
2018-05-07T16:13:51.557Z,22.80
2018-05-07T16:16:26.548Z,22.80
2018-05-07T16:19:01.797Z,22.80
2018-05-07T16:21:35.695Z,22.80
2018-05-07T16:24:10.077Z,22.80
2018-05-07T16:26:45.253Z,22.70
2018-05-07T16:29:19.519Z,22.70
2018-05-07T16:31:53.721Z,22.60
2018-05-07T16:34:27.957Z,22.60
2018-05-07T16:37:02.151Z,22.50
2018-05-07T16:39:36.384Z,22.50
2018-05-07T16:42:11.745Z,22.40
2018-05-07T16:44:46.009Z,22.30
2018-05-07T16:50:13.603Z,22.30
2018-05-07T16:52:50.444Z,22.20
2018-05-07T16:55:24.703Z,22.20
2018-05-07T16:57:59.902Z,22.10
2018-05-07T17:00:35.880Z,22.00
2018-05-07T17:03:11.560Z,22.00
2018-05-07T17:05:45.778Z,22.00
2018-05-07T17:08:20.060Z,22.00
2018-05-07T17:10:54.308Z,21.90
2018-05-07T17:13:28.529Z,21.80
2018-05-07T17:16:03.800Z,21.70
2018-05-07T17:18:38.798Z,21.50
2018-05-07T17:21:13.997Z,21.50
2018-05-07T17:23:48.191Z,21.40
2018-05-07T17:26:23.188Z,21.30
2018-05-07T17:29:01.175Z,21.30
2018-05-07T17:31:35.645Z,21.30
2018-05-07T17:34:10.615Z,21.10
2018-05-07T17:36:44.846Z,21.10
2018-05-07T17:39:19.032Z,21.00
2018-05-07T17:41:59.370Z,20.90
2018-05-07T17:44:49.000Z,20.70
2018-05-07T17:47:36.353Z,20.60
2018-05-07T17:50:11.427Z,20.50
2018-05-07T17:52:46.647Z,20.50
2018-05-07T17:55:21.842Z,20.40
2018-05-07T17:57:56.197Z,20.30
2018-05-07T18:00:31.182Z,20.10
2018-05-07T18:03:06.909Z,20.00
2018-05-07T18:05:41.250Z,19.90
2018-05-07T18:08:16.523Z,19.80
2018-05-07T18:10:51.502Z,19.60
2018-05-07T18:13:25.919Z,19.60
2018-05-07T18:16:00.137Z,19.50
2018-05-07T18:18:35.360Z,19.40
2018-05-07T18:21:10.862Z,19.30
2018-05-07T18:23:48.646Z,19.20
2018-05-07T18:26:25.857Z,19.00
2018-05-07T18:29:00.722Z,18.80
2018-05-07T18:31:40.554Z,18.70
2018-05-07T18:34:20.598Z,18.60
2018-05-07T18:36:54.786Z,18.50
2018-05-07T18:39:29.872Z,18.20
2018-05-07T18:42:03.736Z,18.20
2018-05-07T18:44:38.738Z,17.90
2018-05-07T18:47:12.940Z,17.90
2018-05-07T18:49:48.164Z,17.80
2018-05-07T18:52:22.353Z,17.70
2018-05-07T18:54:57.633Z,17.50
2018-05-07T18:57:32.713Z,17.40
2018-05-07T19:00:06.949Z,17.40
2018-05-07T19:02:41.134Z,17.40
2018-05-07T19:05:16.344Z,17.30
2018-05-07T19:07:50.528Z,17.20
2018-05-07T19:10:24.773Z,17.10
2018-05-07T19:12:58.969Z,16.90
2018-05-07T19:15:33.201Z,16.80
2018-05-07T19:18:07.391Z,16.70
2018-05-07T19:20:41.627Z,16.70
2018-05-07T19:23:16.797Z,16.70
2018-05-07T19:25:51.838Z,16.50
2018-05-07T19:28:26.027Z,16.30
2018-05-07T19:31:01.024Z,16.10
2018-05-07T19:33:36.181Z,16.10
2018-05-07T19:36:10.405Z,16.00
2018-05-07T19:38:44.601Z,15.80
2018-05-07T19:41:19.841Z,15.90
2018-05-07T19:43:54.176Z,15.70
2018-05-07T19:46:28.963Z,15.50
2018-05-07T19:49:03.225Z,15.50
2018-05-07T19:51:36.857Z,15.40
2018-05-07T19:54:15.436Z,15.20
2018-05-07T19:59:36.623Z,14.90
2018-05-07T20:02:10.919Z,14.90
2018-05-07T20:04:46.076Z,14.70
2018-05-07T20:07:19.725Z,14.70
2018-05-07T20:09:53.209Z,14.60
2018-05-07T20:12:26.887Z,14.50
2018-05-07T20:15:00.715Z,14.40
2018-05-07T20:17:34.349Z,14.30
2018-05-07T20:20:08.025Z,14.20
2018-05-07T20:22:41.653Z,14.10
2018-05-07T20:25:15.323Z,14.00
2018-05-07T20:28:02.028Z,13.90
2018-05-07T20:30:35.738Z,13.80
2018-05-07T20:33:09.993Z,13.70
2018-05-07T20:35:46.680Z,13.60
2018-05-07T20:38:22.975Z,13.60
2018-05-07T20:40:58.483Z,13.50
2018-05-07T20:46:13.169Z,13.50
2018-05-07T20:48:47.096Z,13.40
2018-05-07T20:54:27.618Z,13.30
2018-05-07T20:57:02.231Z,13.30
2018-05-07T20:59:36.811Z,13.20
2018-05-07T21:02:11.496Z,13.30
2018-05-07T21:04:46.891Z,13.30
2018-05-07T21:07:22.340Z,13.10
2018-05-07T21:09:56.035Z,12.90
2018-05-07T21:12:31.710Z,12.90
2018-05-07T21:15:05.389Z,12.80
2018-05-07T21:17:39.951Z,12.80
2018-05-07T21:20:16.478Z,12.90
2018-05-07T21:22:51.674Z,13.00
2018-05-07T21:25:29.483Z,13.10
2018-05-07T21:28:04.380Z,13.10
2018-05-07T21:30:41.780Z,13.30
2018-05-07T21:33:17.974Z,13.30
2018-05-07T21:35:52.943Z,13.30
2018-05-07T21:38:26.991Z,13.40
2018-05-07T21:41:01.510Z,13.30
2018-05-07T21:43:36.469Z,13.20
2018-05-07T21:46:11.627Z,13.10
2018-05-07T21:48:46.393Z,13.10
2018-05-07T21:51:24.342Z,13.00
2018-05-07T21:53:57.975Z,13.00
2018-05-07T21:56:35.038Z,13.00
2018-05-07T21:59:11.900Z,12.80
2018-05-07T22:01:46.539Z,12.80
2018-05-07T22:04:20.981Z,12.80
2018-05-07T22:06:54.656Z,12.80
2018-05-07T22:09:36.788Z,12.70
2018-05-07T22:12:11.266Z,12.50
2018-05-07T22:14:46.508Z,12.50
2018-05-07T22:17:22.167Z,12.40
2018-05-07T22:19:56.518Z,12.40
2018-05-07T22:22:32.579Z,12.40
2018-05-07T22:25:07.720Z,12.40
2018-05-07T22:27:45.081Z,12.40
2018-05-07T22:30:20.956Z,12.50
2018-05-07T22:35:43.156Z,12.50
2018-05-07T22:38:19.496Z,12.50
2018-05-07T22:40:53.162Z,12.50
2018-05-07T22:43:29.777Z,12.40
2018-05-07T22:46:04.417Z,12.40
2018-05-07T22:48:39.645Z,12.30
2018-05-07T22:51:13.759Z,12.10
2018-05-07T22:56:43.788Z,11.80
2018-05-07T22:59:19.033Z,11.70
2018-05-07T23:01:52.664Z,11.60
2018-05-07T23:04:27.971Z,11.50
2018-05-07T23:07:01.770Z,11.40
2018-05-07T23:09:37.531Z,11.20
2018-05-07T23:12:11.444Z,11.10
2018-05-07T23:14:52.611Z,11.00
2018-05-07T23:17:27.333Z,10.90
2018-05-07T23:22:41.561Z,10.90
2018-05-07T23:25:15.183Z,10.80
2018-05-07T23:27:48.849Z,10.70
2018-05-07T23:30:23.252Z,10.70
2018-05-07T23:32:56.955Z,10.70
2018-05-07T23:35:30.594Z,10.50
2018-05-07T23:38:04.255Z,10.50
2018-05-07T23:40:37.882Z,10.40
2018-05-07T23:43:11.547Z,10.40
2018-05-07T23:45:44.965Z,10.20
2018-05-07T23:48:19.410Z,10.20
2018-05-07T23:50:53.044Z,10.10
2018-05-07T23:53:27.747Z,10.10
2018-05-07T23:56:01.391Z,9.90
2018-05-07T23:58:35.084Z,9.90
